Terminal Aerodrome Forecast
Issued by NWS Charleston, WV

Current Version | Previous Version | Graphics & Text | Print | Product List | Glossary On
Versions: 1 2 3 4 5 6 7 8 9 10 11 12 13 14 15 16 17 18 19 20 21 22 23 24 25
000
FTUS41 KRLX 232056 AAA
TAFEKN
TAF AMD
KEKN 232056Z 2321/2418 07004KT P6SM BKN150
     FM240300 06003KT P6SM OVC040
     FM240600 06005KT P6SM -RA OVC025
     FM240900 11006KT 4SM -RA BR SCT007 OVC015=

USA.gov is the U.S. government's official web portal to all federal, state and local government web resources and services.